Mammoth Cave National Park, Kentucky
Current Conditions -  °F | °C
As of 6:35 AM on Friday 31 Oct 2014 (Local Time) from KGLW Reporting Station
Drizzle Drizzle  
Wind Chill: 46°   Ceiling: 5000
Heat Index: 46°   Visibility: 7mi
Dew Point: 46°   Wind: 0mph
Humidity: 100%   Direction: NA
Pressure: 29.99"   Gusts: NA
Location:  37.2519°N, 86.1739°W
Report Text: KGLW 311135Z AUTO 00000KT 7SM DZ OVC050 08/08 A2999 RMK AO2 T00750075
Loading
Personal Weather Stations






























Interactive Weather Map
Tropical Storm Tracking
New forecast layout! Learn more

10-Day Weather Forecast

Advertisements
Track Severe Weather on mobile